Time,TemperatureF,DewpointF,PressureIn,WindDirection,WindDirectionDegrees,WindSpeedMPH,WindSpeedGustMPH,Humidity,HourlyPrecipIn,Conditions,Clouds,dailyrainin,SoftwareType,DateUTC
2013-01-09 00:00:00,28.0,22.9,30.17,SSE,157,0.0,0.0,81,0.00,,,0.00,WUHU21623XXSP,2013-01-09 05:00:00,
2013-01-09 00:03:00,28.0,22.9,30.17,SSE,157,0.0,0.0,81,0.00,,,0.00,WUHU21623XXSP,2013-01-09 05:03:00,
2013-01-09 00:08:00,28.2,23.1,30.16,SSE,157,0.0,0.0,81,0.00,,,0.00,WUHU21623XXSP,2013-01-09 05:08:00,
2013-01-09 00:13:00,28.2,23.1,30.16,SSE,157,0.0,0.0,81,0.00,,,0.00,WUHU21623XXSP,2013-01-09 05:13:00,
2013-01-09 00:18:00,28.2,23.1,30.16,SSW,202,0.9,0.9,81,0.00,,,0.00,WUHU21623XXSP,2013-01-09 05:18:00,
2013-01-09 00:23:00,28.2,23.1,30.16,SSW,202,0.9,0.9,81,0.00,,,0.00,WUHU21623XXSP,2013-01-09 05:23:00,
2013-01-09 00:28:00,28.4,23.3,30.15,SSE,157,0.0,0.9,81,0.00,,,0.00,WUHU21623XXSP,2013-01-09 05:28:00,
2013-01-09 00:33:00,28.8,23.6,30.16,SSE,157,0.0,0.9,81,0.00,,,0.00,WUHU21623XXSP,2013-01-09 05:33:00,
2013-01-09 00:38:00,28.9,23.8,30.15,SSE,157,0.0,0.0,81,0.00,,,0.00,WUHU21623XXSP,2013-01-09 05:38:00,
2013-01-09 00:43:00,28.9,23.8,30.15,South,180,0.0,0.0,81,0.00,,,0.00,WUHU21623XXSP,2013-01-09 05:43:00,
2013-01-09 00:48:00,28.9,23.8,30.15,South,180,0.0,0.0,81,0.00,,,0.00,WUHU21623XXSP,2013-01-09 05:48:00,
2013-01-09 00:53:00,28.9,23.8,30.15,South,180,0.0,0.0,81,0.00,,,0.00,WUHU21623XXSP,2013-01-09 05:53:00,
2013-01-09 00:58:00,28.9,23.8,30.15,South,180,0.0,0.0,81,0.00,,,0.00,WUHU21623XXSP,2013-01-09 05:58:00,
2013-01-09 01:03:00,29.1,24.3,30.15,South,180,0.0,0.0,82,0.00,,,0.00,WUHU21623XXSP,2013-01-09 06:03:00,
2013-01-09 01:08:00,29.1,24.3,30.14,South,180,0.0,0.0,82,0.00,,,0.00,WUHU21623XXSP,2013-01-09 06:08:00,
2013-01-09 01:13:00,29.3,24.5,30.14,South,180,0.0,0.0,82,0.00,,,0.00,WUHU21623XXSP,2013-01-09 06:13:00,
2013-01-09 01:18:00,29.5,24.7,30.14,SSE,157,0.4,0.4,82,0.00,,,0.00,WUHU21623XXSP,2013-01-09 06:18:00,
2013-01-09 01:23:00,29.7,24.8,30.14,SE,135,0.0,0.4,82,0.00,,,0.00,WUHU21623XXSP,2013-01-09 06:23:00,
2013-01-09 01:28:00,29.8,25.0,30.14,SSE,157,0.0,0.4,82,0.00,,,0.00,WUHU21623XXSP,2013-01-09 06:28:00,
2013-01-09 01:33:00,30.2,25.7,30.13,SSW,202,0.0,0.0,83,0.00,,,0.00,WUHU21623XXSP,2013-01-09 06:33:00,
2013-01-09 01:38:00,30.7,26.2,30.13,South,180,0.0,0.0,83,0.00,,,0.00,WUHU21623XXSP,2013-01-09 06:38:00,
2013-01-09 01:43:00,30.9,26.7,30.13,SSW,202,0.0,0.0,84,0.00,,,0.00,WUHU21623XXSP,2013-01-09 06:43:00,
2013-01-09 01:48:00,31.6,27.4,30.13,SW,225,0.0,0.0,84,0.00,,,0.00,WUHU21623XXSP,2013-01-09 06:48:00,
2013-01-09 01:53:00,32.4,28.1,30.13,WSW,247,0.0,0.0,84,0.00,,,0.00,WUHU21623XXSP,2013-01-09 06:53:00,
2013-01-09 01:58:00,32.7,28.4,30.13,SSW,202,0.0,0.0,84,0.00,,,0.00,WUHU21623XXSP,2013-01-09 06:58:00,
2013-01-09 02:03:00,33.4,29.0,30.13,SSW,202,0.0,0.0,84,0.00,,,0.00,WUHU21623XXSP,2013-01-09 07:03:00,
2013-01-09 02:08:00,33.6,29.2,30.13,SSW,202,0.0,0.0,84,0.00,,,0.00,WUHU21623XXSP,2013-01-09 07:08:00,
2013-01-09 02:13:00,34.0,29.6,30.13,SSW,202,0.0,0.0,84,0.00,,,0.00,WUHU21623XXSP,2013-01-09 07:13:00,
2013-01-09 02:18:00,34.3,29.6,30.13,SW,225,0.0,0.0,83,0.00,,,0.00,WUHU21623XXSP,2013-01-09 07:18:00,
2013-01-09 02:23:00,34.3,29.6,30.13,SW,225,0.0,0.0,83,0.00,,,0.00,WUHU21623XXSP,2013-01-09 07:23:00,
2013-01-09 02:28:00,34.5,29.8,30.13,SW,225,0.0,0.0,83,0.00,,,0.00,WUHU21623XXSP,2013-01-09 07:28:00,
2013-01-09 02:33:00,34.7,30.0,30.13,SW,225,0.0,0.0,83,0.00,,,0.00,WUHU21623XXSP,2013-01-09 07:33:00,
2013-01-09 02:38:00,34.7,30.0,30.13,SE,135,0.0,0.0,83,0.00,,,0.00,WUHU21623XXSP,2013-01-09 07:38:00,
2013-01-09 02:43:00,34.9,30.2,30.13,SW,225,0.0,0.0,83,0.00,,,0.00,WUHU21623XXSP,2013-01-09 07:43:00,
2013-01-09 02:48:00,34.9,29.9,30.13,SSW,202,0.0,0.0,82,0.00,,,0.00,WUHU21623XXSP,2013-01-09 07:48:00,
2013-01-09 02:53:00,34.9,29.9,30.13,South,180,0.0,0.0,82,0.00,,,0.00,WUHU21623XXSP,2013-01-09 07:53:00,
2013-01-09 02:58:00,35.1,30.1,30.13,SW,225,2.9,2.9,82,0.00,,,0.00,WUHU21623XXSP,2013-01-09 07:58:00,
2013-01-09 03:03:00,35.4,30.4,30.13,SSW,202,0.0,2.9,82,0.00,,,0.00,WUHU21623XXSP,2013-01-09 08:03:00,
2013-01-09 03:08:00,35.4,30.4,30.14,South,180,3.8,3.8,82,0.00,,,0.00,WUHU21623XXSP,2013-01-09 08:08:00,
2013-01-09 03:13:00,36.0,31.0,30.14,SW,225,6.5,6.5,82,0.00,,,0.00,WUHU21623XXSP,2013-01-09 08:13:00,
2013-01-09 03:18:00,36.3,31.3,30.14,WNW,292,7.2,7.2,82,0.00,,,0.00,WUHU21623XXSP,2013-01-09 08:18:00,
2013-01-09 03:23:00,36.7,31.7,30.14,SW,220,0.9,7.2,82,0.00,,,0.00,WUHU21623XXSP,2013-01-09 08:23:00,
2013-01-09 03:28:00,36.9,31.6,30.14,West,270,0.0,7.2,81,0.00,,,0.00,WUHU21623XXSP,2013-01-09 08:28:00,
2013-01-09 03:33:00,37.0,31.7,30.14,SSW,202,0.0,4.5,81,0.00,,,0.00,WUHU21623XXSP,2013-01-09 08:33:00,
2013-01-09 03:38:00,37.0,31.7,30.14,SW,225,1.1,1.8,81,0.00,,,0.00,WUHU21623XXSP,2013-01-09 08:38:00,
2013-01-09 03:43:00,37.0,31.7,30.14,WSW,247,0.0,1.1,81,0.00,,,0.00,WUHU21623XXSP,2013-01-09 08:43:00,
2013-01-09 03:48:00,37.2,31.9,30.14,SW,225,3.1,3.1,81,0.00,,,0.00,WUHU21623XXSP,2013-01-09 08:48:00,
2013-01-09 03:53:00,37.2,31.9,30.15,WSW,247,0.0,3.1,81,0.00,,,0.00,WUHU21623XXSP,2013-01-09 08:53:00,
2013-01-09 03:58:00,37.2,31.9,30.15,WSW,247,0.0,0.0,81,0.00,,,0.00,WUHU21623XXSP,2013-01-09 08:58:00,
2013-01-09 04:03:00,37.2,31.9,30.15,SW,225,0.0,0.0,81,0.00,,,0.00,WUHU21623XXSP,2013-01-09 09:03:00,
2013-01-09 04:08:00,37.2,31.6,30.15,West,270,0.0,0.0,80,0.00,,,0.00,WUHU21623XXSP,2013-01-09 09:08:00,
2013-01-09 04:13:00,37.2,31.6,30.15,West,270,2.5,2.5,80,0.00,,,0.00,WUHU21623XXSP,2013-01-09 09:13:00,
2013-01-09 04:18:00,37.2,31.6,30.14,WSW,247,0.0,2.5,80,0.00,,,0.00,WUHU21623XXSP,2013-01-09 09:18:00,
2013-01-09 04:23:00,37.6,32.0,30.15,WSW,247,1.3,1.3,80,0.00,,,0.00,WUHU21623XXSP,2013-01-09 09:23:00,
2013-01-09 04:28:00,37.9,32.4,30.14,WSW,247,3.1,3.1,80,0.00,,,0.00,WUHU21623XXSP,2013-01-09 09:28:00,
2013-01-09 04:33:00,38.3,32.7,30.14,SW,232,3.2,7.6,80,0.00,,,0.00,WUHU21623XXSP,2013-01-09 09:33:00,
2013-01-09 04:38:00,38.5,32.6,30.14,WSW,247,4.0,7.6,79,0.00,,,0.00,WUHU21623XXSP,2013-01-09 09:38:00,
2013-01-09 04:43:00,38.8,32.9,30.14,SW,225,2.0,4.0,79,0.00,,,0.00,WUHU21623XXSP,2013-01-09 09:43:00,
2013-01-09 04:48:00,39.0,33.1,30.14,SW,225,2.2,2.2,79,0.00,,,0.00,WUHU21623XXSP,2013-01-09 09:48:00,
2013-01-09 04:53:00,39.0,33.1,30.15,West,270,5.8,5.8,79,0.00,,,0.00,WUHU21623XXSP,2013-01-09 09:53:00,
2013-01-09 04:58:00,39.0,32.8,30.15,SSW,202,3.8,5.8,78,0.00,,,0.00,WUHU21623XXSP,2013-01-09 09:58:00,
2013-01-09 05:03:00,39.4,33.1,30.15,SW,225,5.4,5.8,78,0.00,,,0.00,WUHU21623XXSP,2013-01-09 10:03:00,
2013-01-09 05:08:00,39.4,33.1,30.15,SW,225,4.5,5.4,78,0.00,,,0.00,WUHU21623XXSP,2013-01-09 10:08:00,
2013-01-09 05:13:00,39.6,33.3,30.14,SSW,202,2.7,5.4,78,0.00,,,0.00,WUHU21623XXSP,2013-01-09 10:13:00,
2013-01-09 05:18:00,39.6,33.3,30.16,WNW,292,1.6,4.7,78,0.00,,,0.00,WUHU21623XXSP,2013-01-09 10:18:00,
2013-01-09 05:23:00,39.6,33.3,30.16,West,270,1.8,2.0,78,0.00,,,0.00,WUHU21623XXSP,2013-01-09 10:23:00,
2013-01-09 05:28:00,39.6,33.3,30.15,SSW,202,5.1,5.1,78,0.00,,,0.00,WUHU21623XXSP,2013-01-09 10:28:00,
2013-01-09 05:33:00,39.7,33.1,30.15,WSW,247,4.7,5.1,77,0.00,,,0.00,WUHU21623XXSP,2013-01-09 10:33:00,
2013-01-09 05:38:00,39.7,33.1,30.16,WNW,292,0.0,5.1,77,0.00,,,0.00,WUHU21623XXSP,2013-01-09 10:38:00,
2013-01-09 05:43:00,39.7,33.1,30.16,WSW,247,3.8,4.7,77,0.00,,,0.00,WUHU21623XXSP,2013-01-09 10:43:00,
2013-01-09 05:48:00,39.9,33.3,30.15,West,260,7.4,8.3,77,0.00,,,0.00,WUHU21623XXSP,2013-01-09 10:48:00,
2013-01-09 05:53:00,39.9,33.3,30.15,West,270,1.6,8.3,77,0.00,,,0.00,WUHU21623XXSP,2013-01-09 10:53:00,
2013-01-09 05:58:00,39.9,33.3,30.16,WSW,247,0.0,5.8,77,0.00,,,0.00,WUHU21623XXSP,2013-01-09 10:58:00,
2013-01-09 06:03:00,39.9,33.3,30.16,West,270,0.7,0.7,77,0.00,,,0.00,WUHU21623XXSP,2013-01-09 11:03:00,
2013-01-09 06:08:00,39.9,33.3,30.16,West,270,1.6,5.4,77,0.00,,,0.00,WUHU21623XXSP,2013-01-09 11:08:00,
2013-01-09 06:13:00,39.9,33.3,30.16,West,270,1.6,5.4,77,0.00,,,0.00,WUHU21623XXSP,2013-01-09 11:13:00,
2013-01-09 06:18:00,39.9,33.3,30.16,West,267,4.1,6.0,77,0.00,,,0.00,WUHU21623XXSP,2013-01-09 11:18:00,
2013-01-09 06:23:00,39.9,33.3,30.16,WNW,292,6.7,6.7,77,0.00,,,0.00,WUHU21623XXSP,2013-01-09 11:23:00,
2013-01-09 06:28:00,40.1,33.4,30.17,SSW,202,3.8,6.9,77,0.00,,,0.00,WUHU21623XXSP,2013-01-09 11:28:00,
2013-01-09 06:33:00,40.1,33.4,30.17,WNW,292,2.7,6.9,77,0.00,,,0.00,WUHU21623XXSP,2013-01-09 11:33:00,
2013-01-09 06:38:00,40.1,33.4,30.17,West,276,2.3,2.7,77,0.00,,,0.00,WUHU21623XXSP,2013-01-09 11:38:00,
2013-01-09 06:43:00,39.9,33.3,30.16,West,270,1.8,2.7,77,0.00,,,0.00,WUHU21623XXSP,2013-01-09 11:43:00,
2013-01-09 06:48:00,39.9,33.3,30.17,West,270,1.6,2.2,77,0.00,,,0.00,WUHU21623XXSP,2013-01-09 11:48:00,
2013-01-09 06:53:00,39.7,33.1,30.18,WSW,247,2.7,2.7,77,0.00,,,0.00,WUHU21623XXSP,2013-01-09 11:53:00,
2013-01-09 06:58:00,39.7,32.9,30.18,WSW,247,0.0,2.7,77,0.00,,,0.00,WUHU21623XXSP,2013-01-09 11:58:00,
2013-01-09 07:03:00,39.6,32.9,30.18,West,270,0.0,2.7,77,0.00,,,0.00,WUHU21623XXSP,2013-01-09 12:03:00,
2013-01-09 07:08:00,39.6,33.3,30.18,SSW,202,8.9,8.9,78,0.00,,,0.00,WUHU21623XXSP,2013-01-09 12:08:00,
2013-01-09 07:13:00,39.4,33.1,30.18,WSW,247,0.0,8.9,78,0.00,,,0.00,WUHU21623XXSP,2013-01-09 12:13:00,
2013-01-09 07:18:00,39.4,33.1,30.18,West,270,0.0,8.9,78,0.00,,,0.00,WUHU21623XXSP,2013-01-09 12:18:00,
2013-01-09 07:23:00,39.0,32.8,30.18,WSW,253,0.8,1.1,78,0.00,,,0.00,WUHU21623XXSP,2013-01-09 12:23:00,
2013-01-09 07:28:00,39.0,32.8,30.19,West,270,0.0,1.1,78,0.00,,,0.00,WUHU21623XXSP,2013-01-09 12:28:00,
2013-01-09 07:33:00,39.0,32.8,30.20,WSW,247,1.8,1.8,78,0.00,,,0.00,WUHU21623XXSP,2013-01-09 12:33:00,
2013-01-09 07:38:00,39.0,32.8,30.20,SW,225,6.0,6.0,78,0.00,,,0.00,WUHU21623XXSP,2013-01-09 12:38:00,
2013-01-09 07:43:00,39.0,32.8,30.21,NW,315,3.4,6.0,78,0.00,,,0.00,WUHU21623XXSP,2013-01-09 12:43:00,
2013-01-09 07:48:00,39.0,33.1,30.21,NW,315,5.8,6.0,79,0.00,,,0.00,WUHU21623XXSP,2013-01-09 12:48:00,
2013-01-09 07:53:00,39.0,33.1,30.21,WSW,247,5.1,5.8,79,0.00,,,0.00,WUHU21623XXSP,2013-01-09 12:53:00,
2013-01-09 07:58:00,39.0,33.1,30.21,West,272,6.2,6.5,79,0.00,,,0.00,WUHU21623XXSP,2013-01-09 12:58:00,
2013-01-09 08:03:00,39.0,33.1,30.21,SW,225,6.3,6.5,79,0.00,,,0.00,WUHU21623XXSP,2013-01-09 13:03:00,
2013-01-09 08:08:00,39.0,33.1,30.22,WSW,247,6.7,6.7,79,0.00,,,0.00,WUHU21623XXSP,2013-01-09 13:08:00,
2013-01-09 08:13:00,39.0,33.1,30.23,West,270,1.8,6.7,79,0.00,,,0.00,WUHU21623XXSP,2013-01-09 13:13:00,
2013-01-09 08:18:00,39.0,33.1,30.23,West,270,1.7,6.7,79,0.00,,,0.00,WUHU21623XXSP,2013-01-09 13:18:00,
2013-01-09 08:23:00,39.0,33.1,30.23,West,270,0.9,2.0,79,0.00,,,0.00,WUHU21623XXSP,2013-01-09 13:23:00,
2013-01-09 08:28:00,38.8,32.9,30.23,WNW,288,3.1,5.1,79,0.00,,,0.00,WUHU21623XXSP,2013-01-09 13:28:00,
2013-01-09 08:33:00,38.8,32.9,30.23,WSW,238,4.2,5.1,79,0.00,,,0.00,WUHU21623XXSP,2013-01-09 13:33:00,
2013-01-09 08:38:00,38.8,32.9,30.24,West,270,2.5,4.3,79,0.00,,,0.00,WUHU21623XXSP,2013-01-09 13:38:00,
2013-01-09 08:43:00,38.8,32.9,30.24,West,270,1.3,4.0,79,0.00,,,0.00,WUHU21623XXSP,2013-01-09 13:43:00,
2013-01-09 09:00:00,39.0,33.1,30.25,West,270,1.6,1.6,79,0.00,,,0.00,WUHU21623XXSP,2013-01-09 14:00:00,
2013-01-09 09:05:00,39.0,33.1,30.26,SSW,202,2.2,2.2,79,0.00,,,0.00,WUHU21623XXSP,2013-01-09 14:05:00,
2013-01-09 09:10:00,39.0,33.1,30.26,West,270,2.2,2.2,79,0.00,,,0.00,WUHU21623XXSP,2013-01-09 14:10:00,
2013-01-09 09:15:00,39.4,33.4,30.27,WNW,292,3.1,4.3,79,0.00,,,0.00,WUHU21623XXSP,2013-01-09 14:15:00,
2013-01-09 09:20:00,39.7,34.1,30.27,SSW,200,4.7,5.1,80,0.00,,,0.00,WUHU21623XXSP,2013-01-09 14:20:00,
2013-01-09 09:25:00,40.3,34.6,30.27,West,259,0.3,5.1,80,0.00,,,0.00,WUHU21623XXSP,2013-01-09 14:25:00,
2013-01-09 09:30:00,40.6,34.6,30.28,West,270,4.7,4.7,79,0.00,,,0.00,WUHU21623XXSP,2013-01-09 14:30:00,
2013-01-09 09:35:00,41.9,35.5,30.28,West,273,3.9,5.8,78,0.00,,,0.00,WUHU21623XXSP,2013-01-09 14:35:00,
2013-01-09 09:40:00,42.6,36.2,30.28,WNW,292,5.8,5.8,78,0.00,,,0.00,WUHU21623XXSP,2013-01-09 14:40:00,
2013-01-09 09:45:00,43.5,36.4,30.28,WNW,292,2.7,5.8,76,0.00,,,0.00,WUHU21623XXSP,2013-01-09 14:45:00,
2013-01-09 09:50:00,43.9,36.8,30.28,SW,225,7.6,7.6,76,0.00,,,0.00,WUHU21623XXSP,2013-01-09 14:50:00,
2013-01-09 09:55:00,44.2,36.8,30.28,West,270,4.3,7.6,75,0.00,,,0.00,WUHU21623XXSP,2013-01-09 14:55:00,
2013-01-09 10:00:00,44.1,36.3,30.28,WSW,247,4.0,7.6,74,0.00,,,0.00,WUHU21623XXSP,2013-01-09 15:00:00,
2013-01-09 10:05:00,43.7,35.6,30.29,NW,315,3.8,4.3,73,0.00,,,0.00,WUHU21623XXSP,2013-01-09 15:05:00,
2013-01-09 10:10:00,43.5,35.4,30.29,WNW,292,0.9,4.0,73,0.00,,,0.00,WUHU21623XXSP,2013-01-09 15:10:00,
2013-01-09 10:15:00,43.0,34.9,30.29,WNW,292,3.6,3.8,73,0.00,,,0.00,WUHU21623XXSP,2013-01-09 15:15:00,
2013-01-09 10:20:00,43.0,34.9,30.29,West,270,3.4,3.6,73,0.00,,,0.00,WUHU21623XXSP,2013-01-09 15:20:00,
2013-01-09 10:25:00,43.0,35.3,30.29,West,270,2.7,3.6,74,0.00,,,0.00,WUHU21623XXSP,2013-01-09 15:25:00,
2013-01-09 10:30:00,43.0,35.3,30.30,WSW,247,1.1,3.4,74,0.00,,,0.00,WUHU21623XXSP,2013-01-09 15:30:00,
2013-01-09 10:35:00,43.0,35.3,30.29,WSW,247,2.7,2.7,74,0.00,,,0.00,WUHU21623XXSP,2013-01-09 15:35:00,
2013-01-09 10:40:00,43.0,35.3,30.30,West,270,2.2,2.7,74,0.00,,,0.00,WUHU21623XXSP,2013-01-09 15:40:00,
2013-01-09 10:45:00,43.2,35.1,30.30,West,270,2.0,2.7,73,0.00,,,0.00,WUHU21623XXSP,2013-01-09 15:45:00,
2013-01-09 10:50:00,43.2,35.1,30.30,West,270,0.0,2.2,73,0.00,,,0.00,WUHU21623XXSP,2013-01-09 15:50:00,
2013-01-09 10:55:00,43.2,35.1,30.31,SW,225,11.0,11.0,73,0.00,,,0.00,WUHU21623XXSP,2013-01-09 15:55:00,
2013-01-09 11:00:00,43.2,35.2,30.30,West,270,0.2,11.0,73,0.00,,,0.00,WUHU21623XXSP,2013-01-09 16:00:00,
2013-01-09 11:05:00,42.9,34.9,30.30,West,270,3.1,11.0,73,0.00,,,0.00,WUHU21623XXSP,2013-01-09 16:05:00,
2013-01-09 11:10:00,42.6,34.6,30.31,West,270,1.3,3.1,73,0.00,,,0.00,WUHU21623XXSP,2013-01-09 16:10:00,
2013-01-09 11:15:00,42.3,34.0,30.31,WSW,248,1.7,5.6,72,0.00,,,0.00,WUHU21623XXSP,2013-01-09 16:15:00,
2013-01-09 11:20:00,42.1,33.8,30.31,SW,234,3.7,5.6,72,0.00,,,0.00,WUHU21623XXSP,2013-01-09 16:20:00,
2013-01-09 11:25:00,41.7,33.4,30.30,WNW,292,4.4,5.6,72,0.00,,,0.00,WUHU21623XXSP,2013-01-09 16:25:00,
2013-01-09 11:30:00,41.5,33.2,30.30,West,270,6.5,7.6,72,0.00,,,0.00,WUHU21623XXSP,2013-01-09 16:30:00,
2013-01-09 11:35:00,41.4,33.1,30.30,West,270,0.7,7.6,72,0.00,,,0.00,WUHU21623XXSP,2013-01-09 16:35:00,
2013-01-09 11:40:00,41.1,32.8,30.30,SW,230,1.4,6.5,72,0.00,,,0.00,WUHU21623XXSP,2013-01-09 16:40:00,
2013-01-09 11:45:00,40.8,32.6,30.30,WNW,292,2.0,2.0,72,0.00,,,0.00,WUHU21623XXSP,2013-01-09 16:45:00,
2013-01-09 11:50:00,40.5,32.3,30.30,West,265,3.5,4.9,72,0.00,,,0.00,WUHU21623XXSP,2013-01-09 16:50:00,
2013-01-09 11:55:00,40.1,31.8,30.29,WNW,292,5.4,5.4,72,0.00,,,0.00,WUHU21623XXSP,2013-01-09 16:55:00,
2013-01-09 12:00:00,39.8,31.2,30.29,West,270,5.6,6.5,71,0.00,,,0.00,WUHU21623XXSP,2013-01-09 17:00:00,
2013-01-09 12:05:00,39.5,31.0,30.29,West,270,3.4,6.5,71,0.00,,,0.00,WUHU21623XXSP,2013-01-09 17:05:00,
2013-01-09 12:10:00,39.3,31.1,30.30,WSW,240,1.8,7.4,72,0.00,,,0.00,WUHU21623XXSP,2013-01-09 17:10:00,
2013-01-09 12:15:00,39.4,30.9,30.30,WSW,247,2.0,7.4,71,0.00,,,0.00,WUHU21623XXSP,2013-01-09 17:15:00,
2013-01-09 12:20:00,39.4,30.9,30.29,WSW,253,3.7,4.0,71,0.00,,,0.00,WUHU21623XXSP,2013-01-09 17:20:00,
2013-01-09 12:25:00,38.8,30.2,30.29,West,270,3.1,4.0,71,0.00,,,0.00,WUHU21623XXSP,2013-01-09 17:25:00,
2013-01-09 12:30:00,38.5,30.0,30.29,West,270,2.2,3.1,71,0.00,,,0.00,WUHU21623XXSP,2013-01-09 17:30:00,
2013-01-09 12:35:00,38.3,29.8,30.29,SW,225,2.9,2.9,71,0.00,,,0.00,WUHU21623XXSP,2013-01-09 17:35:00,
2013-01-09 12:40:00,38.3,29.8,30.29,West,270,3.1,3.1,71,0.00,,,0.00,WUHU21623XXSP,2013-01-09 17:40:00,
2013-01-09 12:45:00,38.3,29.8,30.29,WSW,247,2.2,3.1,71,0.00,,,0.00,WUHU21623XXSP,2013-01-09 17:45:00,
2013-01-09 12:50:00,38.2,29.7,30.28,WSW,247,2.2,3.1,71,0.00,,,0.00,WUHU21623XXSP,2013-01-09 17:50:00,
2013-01-09 12:55:00,38.0,29.5,30.29,SW,225,3.8,3.8,71,0.00,,,0.00,WUHU21623XXSP,2013-01-09 17:55:00,
2013-01-09 13:00:00,37.8,29.3,30.29,West,270,1.6,3.8,71,0.00,,,0.00,WUHU21623XXSP,2013-01-09 18:00:00,
2013-01-09 13:05:00,37.7,29.2,30.29,West,270,5.8,5.8,71,0.00,,,0.00,WUHU21623XXSP,2013-01-09 18:05:00,
2013-01-09 13:10:00,37.6,29.1,30.29,WNW,292,7.4,7.4,71,0.00,,,0.00,WUHU21623XXSP,2013-01-09 18:10:00,
2013-01-09 13:15:00,37.6,29.1,30.29,West,270,3.6,7.4,71,0.00,,,0.00,WUHU21623XXSP,2013-01-09 18:15:00,
2013-01-09 13:20:00,37.6,29.1,30.29,West,270,2.7,7.4,71,0.00,,,0.00,WUHU21623XXSP,2013-01-09 18:20:00,
2013-01-09 13:25:00,37.5,28.7,30.29,West,270,2.7,3.6,70,0.00,,,0.00,WUHU21623XXSP,2013-01-09 18:25:00,
2013-01-09 13:30:00,37.3,28.5,30.29,WSW,249,1.9,2.7,70,0.00,,,0.00,WUHU21623XXSP,2013-01-09 18:30:00,
2013-01-09 13:35:00,37.4,28.9,30.29,West,279,2.1,2.7,71,0.00,,,0.00,WUHU21623XXSP,2013-01-09 18:35:00,
2013-01-09 13:40:00,37.5,28.7,30.29,WSW,247,6.5,6.5,70,0.00,,,0.00,WUHU21623XXSP,2013-01-09 18:40:00,
2013-01-09 13:41:00,37.5,28.7,30.29,WNW,292,6.9,6.9,70,0.00,,,0.00,WUHU21623XXSP,2013-01-09 18:41:00,
2013-01-09 13:42:00,37.5,28.7,30.30,WNW,292,6.9,6.9,70,0.00,,,0.00,WUHU21623XXSP,2013-01-09 18:42:00,
2013-01-09 13:44:00,37.5,28.6,30.29,West,277,5.3,6.9,70,0.00,,,0.00,WUHU21623XXSP,2013-01-09 18:44:00,
2013-01-09 13:45:00,37.5,28.6,30.29,WSW,253,3.3,6.9,70,0.00,,,0.00,WUHU21623XXSP,2013-01-09 18:45:00,
2013-01-09 13:48:00,37.4,28.6,30.30,West,270,4.5,6.9,70,0.00,,,0.00,WUHU21623XXSP,2013-01-09 18:48:00,
2013-01-09 13:53:00,37.4,28.6,30.30,WNW,292,2.0,4.7,70,0.00,,,0.00,WUHU21623XXSP,2013-01-09 18:53:00,
2013-01-09 13:58:00,37.6,28.8,30.30,SW,225,3.4,4.5,70,0.00,,,0.00,WUHU21623XXSP,2013-01-09 18:58:00,
2013-01-09 14:03:00,37.8,29.0,30.31,SW,225,4.7,4.7,70,0.00,,,0.00,WUHU21623XXSP,2013-01-09 19:03:00,
2013-01-09 14:08:00,38.0,28.8,30.31,WNW,292,5.4,7.4,69,0.00,,,0.00,WUHU21623XXSP,2013-01-09 19:08:00,
2013-01-09 14:13:00,37.8,28.7,30.31,West,270,1.3,7.4,69,0.00,,,0.00,WUHU21623XXSP,2013-01-09 19:13:00,
2013-01-09 14:18:00,37.9,28.7,30.31,West,273,2.0,5.4,69,0.00,,,0.00,WUHU21623XXSP,2013-01-09 19:18:00,
2013-01-09 14:23:00,38.1,28.9,30.31,West,270,2.7,4.3,69,0.00,,,0.00,WUHU21623XXSP,2013-01-09 19:23:00,
2013-01-09 14:28:00,38.2,29.0,30.31,West,270,3.4,3.4,69,0.00,,,0.00,WUHU21623XXSP,2013-01-09 19:28:00,
2013-01-09 14:33:00,38.4,29.2,30.31,West,270,2.9,3.4,69,0.00,,,0.00,WUHU21623XXSP,2013-01-09 19:33:00,
2013-01-09 14:38:00,38.7,29.5,30.31,West,270,2.7,2.9,69,0.00,,,0.00,WUHU21623XXSP,2013-01-09 19:38:00,
2013-01-09 14:43:00,39.0,29.8,30.31,West,266,3.1,5.4,69,0.00,,,0.00,WUHU21623XXSP,2013-01-09 19:43:00,
2013-01-09 14:48:00,39.3,29.7,30.32,WSW,247,0.7,5.4,68,0.00,,,0.00,WUHU21623XXSP,2013-01-09 19:48:00,
2013-01-09 14:53:00,39.5,29.8,30.32,WSW,247,4.9,4.9,68,0.00,,,0.00,WUHU21623XXSP,2013-01-09 19:53:00,
2013-01-09 14:58:00,39.6,30.0,30.32,West,270,4.7,4.9,68,0.00,,,0.00,WUHU21623XXSP,2013-01-09 19:58:00,
2013-01-09 15:03:00,39.8,30.1,30.33,WSW,247,7.8,7.8,68,0.00,,,0.00,WUHU21623XXSP,2013-01-09 20:03:00,
2013-01-09 15:08:00,40.1,30.5,30.33,North,0,0.0,0.0,68,0.00,,,0.00,WUHU21623XXSP,2013-01-09 20:08:00,
2013-01-09 15:13:00,40.6,30.6,30.33,West,270,3.4,7.8,67,0.00,,,0.00,WUHU21623XXSP,2013-01-09 20:13:00,
2013-01-09 15:18:00,41.2,31.1,30.33,WSW,247,2.7,4.3,67,0.00,,,0.00,WUHU21623XXSP,2013-01-09 20:18:00,
2013-01-09 15:23:00,41.6,31.2,30.34,WSW,247,8.1,8.1,66,0.00,,,0.00,WUHU21623XXSP,2013-01-09 20:23:00,
2013-01-09 15:28:00,41.9,31.4,30.34,West,270,1.1,8.1,66,0.00,,,0.00,WUHU21623XXSP,2013-01-09 20:28:00,
2013-01-09 15:33:00,42.3,31.8,30.35,NW,315,0.0,8.1,66,0.00,,,0.00,WUHU21623XXSP,2013-01-09 20:33:00,
2013-01-09 15:38:00,42.7,32.3,30.35,WSW,247,4.3,4.3,66,0.00,,,0.00,WUHU21623XXSP,2013-01-09 20:38:00,
2013-01-09 15:43:00,43.0,32.1,30.35,West,270,5.8,5.8,65,0.00,,,0.00,WUHU21623XXSP,2013-01-09 20:43:00,
2013-01-09 15:48:00,43.2,32.3,30.35,WSW,247,4.3,5.8,65,0.00,,,0.00,WUHU21623XXSP,2013-01-09 20:48:00,
2013-01-09 15:53:00,43.5,32.6,30.35,West,270,2.2,5.8,65,0.00,,,0.00,WUHU21623XXSP,2013-01-09 20:53:00,
2013-01-09 15:58:00,43.9,33.0,30.35,West,279,1.8,4.3,65,0.00,,,0.00,WUHU21623XXSP,2013-01-09 20:58:00,
2013-01-09 16:03:00,44.2,33.3,30.36,WNW,292,1.6,3.1,65,0.00,,,0.00,WUHU21623XXSP,2013-01-09 21:03:00,
2013-01-09 16:08:00,44.5,33.5,30.36,West,270,0.9,3.4,65,0.00,,,0.00,WUHU21623XXSP,2013-01-09 21:08:00,
2013-01-09 16:13:00,44.6,33.6,30.36,NW,315,2.9,3.4,65,0.00,,,0.00,WUHU21623XXSP,2013-01-09 21:13:00,
2013-01-09 16:18:00,44.8,33.9,30.36,WNW,292,0.0,2.9,65,0.00,,,0.00,WUHU21623XXSP,2013-01-09 21:18:00,
2013-01-09 16:23:00,44.9,34.0,30.36,West,270,0.9,4.3,65,0.00,,,0.00,WUHU21623XXSP,2013-01-09 21:23:00,
2013-01-09 16:28:00,45.0,34.0,30.36,WNW,292,4.9,4.9,65,0.00,,,0.00,WUHU21623XXSP,2013-01-09 21:28:00,
2013-01-09 16:33:00,45.3,34.3,30.37,WNW,292,2.5,4.9,65,0.00,,,0.00,WUHU21623XXSP,2013-01-09 21:33:00,
2013-01-09 16:38:00,45.6,34.6,30.36,WSW,247,4.7,4.7,65,0.00,,,0.00,WUHU21623XXSP,2013-01-09 21:38:00,
2013-01-09 16:43:00,45.8,34.8,30.36,West,270,0.4,4.7,65,0.00,,,0.00,WUHU21623XXSP,2013-01-09 21:43:00,
2013-01-09 16:48:00,45.9,35.3,30.36,WSW,247,0.7,4.7,66,0.00,,,0.00,WUHU21623XXSP,2013-01-09 21:48:00,
2013-01-09 16:53:00,45.8,34.8,30.37,WSW,247,0.0,0.7,65,0.00,,,0.00,WUHU21623XXSP,2013-01-09 21:53:00,
2013-01-09 16:58:00,45.6,34.6,30.37,SW,225,1.8,1.8,65,0.00,,,0.00,WUHU21623XXSP,2013-01-09 21:58:00,
2013-01-09 17:03:00,45.1,34.4,30.38,West,270,0.0,1.8,66,0.00,,,0.00,WUHU21623XXSP,2013-01-09 22:03:00,
2013-01-09 17:08:00,44.6,33.9,30.38,SW,225,2.0,2.0,66,0.00,,,0.00,WUHU21623XXSP,2013-01-09 22:08:00,
2013-01-09 17:13:00,43.9,33.6,30.38,WSW,251,1.2,2.0,67,0.00,,,0.00,WUHU21623XXSP,2013-01-09 22:13:00,
2013-01-09 17:18:00,43.5,33.3,30.38,West,270,0.0,2.0,67,0.00,,,0.00,WUHU21623XXSP,2013-01-09 22:18:00,
2013-01-09 17:23:00,43.3,33.1,30.38,WSW,247,0.9,0.9,67,0.00,,,0.00,WUHU21623XXSP,2013-01-09 22:23:00,
2013-01-09 17:28:00,42.6,32.8,30.38,SW,225,0.0,0.9,68,0.00,,,0.00,WUHU21623XXSP,2013-01-09 22:28:00,
2013-01-09 17:33:00,42.4,32.6,30.38,WSW,247,0.0,0.0,68,0.00,,,0.00,WUHU21623XXSP,2013-01-09 22:33:00,
2013-01-09 17:38:00,42.1,32.7,30.38,West,270,0.0,0.0,69,0.00,,,0.00,WUHU21623XXSP,2013-01-09 22:38:00,
2013-01-09 17:43:00,41.7,32.3,30.38,WSW,247,0.0,0.0,69,0.00,,,0.00,WUHU21623XXSP,2013-01-09 22:43:00,
2013-01-09 17:48:00,41.5,32.1,30.38,West,270,0.0,0.0,69,0.00,,,0.00,WUHU21623XXSP,2013-01-09 22:48:00,
2013-01-09 17:53:00,41.2,32.2,30.39,WSW,247,0.0,0.0,70,0.00,,,0.00,WUHU21623XXSP,2013-01-09 22:53:00,
2013-01-09 17:58:00,40.8,31.8,30.39,WSW,247,0.7,0.7,70,0.00,,,0.00,WUHU21623XXSP,2013-01-09 22:58:00,
2013-01-09 18:03:00,40.8,31.8,30.39,WSW,247,1.3,1.3,70,0.00,,,0.00,WUHU21623XXSP,2013-01-09 23:03:00,
2013-01-09 18:08:00,40.5,31.8,30.39,West,270,1.3,1.6,71,0.00,,,0.00,WUHU21623XXSP,2013-01-09 23:08:00,
2013-01-09 18:13:00,40.3,31.9,30.39,West,270,0.0,1.6,72,0.00,,,0.00,WUHU21623XXSP,2013-01-09 23:13:00,
2013-01-09 18:18:00,40.3,31.9,30.40,West,270,0.0,0.7,72,0.00,,,0.00,WUHU21623XXSP,2013-01-09 23:18:00,
2013-01-09 18:23:00,39.9,31.6,30.41,West,270,1.1,1.1,72,0.00,,,0.00,WUHU21623XXSP,2013-01-09 23:23:00,
2013-01-09 18:28:00,39.9,31.6,30.41,WNW,292,0.9,1.1,72,0.00,,,0.00,WUHU21623XXSP,2013-01-09 23:28:00,
2013-01-09 18:33:00,39.9,31.6,30.41,WSW,247,2.2,2.2,72,0.00,,,0.00,WUHU21623XXSP,2013-01-09 23:33:00,
2013-01-09 18:38:00,39.7,31.7,30.41,NNW,337,1.3,2.2,73,0.00,,,0.00,WUHU21623XXSP,2013-01-09 23:38:00,
2013-01-09 18:43:00,39.6,31.6,30.41,WNW,292,0.0,1.3,73,0.00,,,0.00,WUHU21623XXSP,2013-01-09 23:43:00,
2013-01-09 18:48:00,39.6,31.6,30.42,WNW,292,0.0,1.3,73,0.00,,,0.00,WUHU21623XXSP,2013-01-09 23:48:00,
2013-01-09 18:53:00,39.4,31.7,30.42,WNW,292,0.0,0.0,74,0.00,,,0.00,WUHU21623XXSP,2013-01-09 23:53:00,
2013-01-09 18:58:00,39.4,31.7,30.42,SW,225,0.0,0.0,74,0.00,,,0.00,WUHU21623XXSP,2013-01-09 23:58:00,
2013-01-09 19:03:00,39.0,31.4,30.42,West,270,0.7,0.7,74,0.00,,,0.00,WUHU21623XXSP,2013-01-10 00:03:00,
2013-01-09 19:08:00,38.8,31.2,30.42,West,270,0.0,1.1,74,0.00,,,0.00,WUHU21623XXSP,2013-01-10 00:08:00,
2013-01-09 19:13:00,38.8,31.2,30.42,WNW,292,1.3,1.3,74,0.00,,,0.00,WUHU21623XXSP,2013-01-10 00:13:00,
2013-01-09 19:18:00,38.7,31.0,30.41,West,270,0.0,1.3,74,0.00,,,0.00,WUHU21623XXSP,2013-01-10 00:18:00,
2013-01-09 19:23:00,38.5,30.9,30.42,WNW,292,0.0,1.3,74,0.00,,,0.00,WUHU21623XXSP,2013-01-10 00:23:00,
2013-01-09 19:28:00,38.5,30.9,30.42,WNW,292,0.0,0.0,74,0.00,,,0.00,WUHU21623XXSP,2013-01-10 00:28:00,
2013-01-09 19:33:00,38.3,31.0,30.43,West,270,0.9,1.8,75,0.00,,,0.00,WUHU21623XXSP,2013-01-10 00:33:00,
2013-01-09 19:38:00,38.3,31.0,30.43,WNW,292,0.0,1.8,75,0.00,,,0.00,WUHU21623XXSP,2013-01-10 00:38:00,
2013-01-09 19:43:00,38.1,30.9,30.43,West,270,0.0,0.9,75,0.00,,,0.00,WUHU21623XXSP,2013-01-10 00:43:00,
2013-01-09 19:48:00,38.1,30.9,30.42,WSW,247,0.0,0.0,75,0.00,,,0.00,WUHU21623XXSP,2013-01-10 00:48:00,
2013-01-09 19:53:00,37.9,30.7,30.42,WSW,247,0.0,0.0,75,0.00,,,0.00,WUHU21623XXSP,2013-01-10 00:53:00,
2013-01-09 19:58:00,37.8,30.5,30.42,West,270,1.1,1.1,75,0.00,,,0.00,WUHU21623XXSP,2013-01-10 00:58:00,
2013-01-09 20:03:00,37.6,30.4,30.43,West,270,0.0,1.1,75,0.00,,,0.00,WUHU21623XXSP,2013-01-10 01:03:00,
2013-01-09 20:08:00,37.2,30.0,30.43,West,270,0.0,0.0,75,0.00,,,0.00,WUHU21623XXSP,2013-01-10 01:08:00,
2013-01-09 20:13:00,37.2,30.0,30.42,West,270,0.0,0.0,75,0.00,,,0.00,WUHU21623XXSP,2013-01-10 01:13:00,
2013-01-09 20:18:00,37.2,30.0,30.43,West,270,0.0,0.0,75,0.00,,,0.00,WUHU21623XXSP,2013-01-10 01:18:00,
2013-01-09 20:23:00,37.0,29.8,30.43,West,270,0.0,0.0,75,0.00,,,0.00,WUHU21623XXSP,2013-01-10 01:23:00,
2013-01-09 20:28:00,37.0,29.8,30.43,West,270,0.0,0.0,75,0.00,,,0.00,WUHU21623XXSP,2013-01-10 01:28:00,
2013-01-09 20:33:00,36.9,29.3,30.43,West,270,0.0,0.0,74,0.00,,,0.00,WUHU21623XXSP,2013-01-10 01:33:00,
2013-01-09 20:38:00,36.7,29.5,30.43,WNW,292,0.9,0.9,75,0.00,,,0.00,WUHU21623XXSP,2013-01-10 01:38:00,
2013-01-09 20:43:00,36.7,29.5,30.43,West,270,1.8,1.8,75,0.00,,,0.00,WUHU21623XXSP,2013-01-10 01:43:00,
2013-01-09 20:48:00,36.5,29.3,30.43,West,270,0.0,1.8,75,0.00,,,0.00,WUHU21623XXSP,2013-01-10 01:48:00,
2013-01-09 20:53:00,36.3,28.8,30.43,West,270,0.0,0.0,74,0.00,,,0.00,WUHU21623XXSP,2013-01-10 01:53:00,
2013-01-09 20:58:00,36.3,28.8,30.44,SW,225,2.7,2.7,74,0.00,,,0.00,WUHU21623XXSP,2013-01-10 01:58:00,
2013-01-09 21:03:00,36.3,28.8,30.44,West,270,0.0,4.0,74,0.00,,,0.00,WUHU21623XXSP,2013-01-10 02:03:00,
2013-01-09 21:08:00,36.1,28.6,30.44,NW,315,0.0,4.0,74,0.00,,,0.00,WUHU21623XXSP,2013-01-10 02:08:00,
2013-01-09 21:13:00,36.1,28.6,30.44,West,270,0.0,0.0,74,0.00,,,0.00,WUHU21623XXSP,2013-01-10 02:13:00,
2013-01-09 21:18:00,36.0,28.4,30.44,WSW,247,0.0,0.0,74,0.00,,,0.00,WUHU21623XXSP,2013-01-10 02:18:00,
2013-01-09 21:23:00,36.0,28.4,30.44,WSW,247,0.0,0.0,74,0.00,,,0.00,WUHU21623XXSP,2013-01-10 02:23:00,
2013-01-09 21:28:00,35.6,28.1,30.45,WSW,247,0.0,0.0,74,0.00,,,0.00,WUHU21623XXSP,2013-01-10 02:28:00,
2013-01-09 21:33:00,35.4,27.9,30.45,WSW,247,0.0,0.0,74,0.00,,,0.00,WUHU21623XXSP,2013-01-10 02:33:00,
2013-01-09 21:38:00,35.2,27.7,30.45,WSW,247,0.0,0.0,74,0.00,,,0.00,WUHU21623XXSP,2013-01-10 02:38:00,
2013-01-09 21:43:00,35.2,27.7,30.45,WSW,247,0.0,0.0,74,0.00,,,0.00,WUHU21623XXSP,2013-01-10 02:43:00,
2013-01-09 21:48:00,34.9,27.0,30.46,SW,225,0.0,0.0,73,0.00,,,0.00,WUHU21623XXSP,2013-01-10 02:48:00,
2013-01-09 21:53:00,34.9,27.0,30.46,West,270,0.0,0.0,73,0.00,,,0.00,WUHU21623XXSP,2013-01-10 02:53:00,
2013-01-09 21:58:00,34.9,27.0,30.47,West,270,0.0,0.0,73,0.00,,,0.00,WUHU21623XXSP,2013-01-10 02:58:00,
2013-01-09 22:03:00,34.7,26.9,30.46,West,270,0.0,0.0,73,0.00,,,0.00,WUHU21623XXSP,2013-01-10 03:03:00,
2013-01-09 22:08:00,34.5,26.7,30.47,West,270,0.0,0.0,73,0.00,,,0.00,WUHU21623XXSP,2013-01-10 03:08:00,
2013-01-09 22:13:00,34.5,26.7,30.46,West,270,0.0,0.0,73,0.00,,,0.00,WUHU21623XXSP,2013-01-10 03:13:00,
2013-01-09 22:18:00,34.3,26.5,30.47,West,270,0.0,0.0,73,0.00,,,0.00,WUHU21623XXSP,2013-01-10 03:18:00,
2013-01-09 22:23:00,34.3,26.5,30.47,West,270,0.0,0.0,73,0.00,,,0.00,WUHU21623XXSP,2013-01-10 03:23:00,
2013-01-09 22:28:00,33.8,26.0,30.47,West,270,0.0,0.0,73,0.00,,,0.00,WUHU21623XXSP,2013-01-10 03:28:00,
2013-01-09 22:33:00,33.6,25.8,30.47,West,270,0.0,0.0,73,0.00,,,0.00,WUHU21623XXSP,2013-01-10 03:33:00,
2013-01-09 22:38:00,33.3,25.1,30.47,West,270,0.0,0.0,72,0.00,,,0.00,WUHU21623XXSP,2013-01-10 03:38:00,
2013-01-09 22:43:00,33.1,25.0,30.47,West,270,0.0,0.0,72,0.00,,,0.00,WUHU21623XXSP,2013-01-10 03:43:00,
2013-01-09 22:48:00,32.9,24.8,30.48,West,270,0.0,0.0,72,0.00,,,0.00,WUHU21623XXSP,2013-01-10 03:48:00,
2013-01-09 22:53:00,32.7,24.7,30.47,West,270,0.0,0.0,72,0.00,,,0.00,WUHU21623XXSP,2013-01-10 03:53:00,
2013-01-09 22:58:00,32.7,24.7,30.48,West,270,0.0,0.0,72,0.00,,,0.00,WUHU21623XXSP,2013-01-10 03:58:00,
2013-01-09 23:03:00,32.4,24.3,30.48,West,270,0.0,0.0,72,0.00,,,0.00,WUHU21623XXSP,2013-01-10 04:03:00,
2013-01-09 23:08:00,32.4,24.3,30.48,West,270,0.0,0.0,72,0.00,,,0.00,WUHU21623XXSP,2013-01-10 04:08:00,
2013-01-09 23:13:00,32.2,24.2,30.48,West,270,0.0,0.0,72,0.00,,,0.00,WUHU21623XXSP,2013-01-10 04:13:00,
2013-01-09 23:18:00,31.8,23.8,30.48,West,270,0.0,0.0,72,0.00,,,0.00,WUHU21623XXSP,2013-01-10 04:18:00,
2013-01-09 23:23:00,31.6,23.6,30.48,West,270,0.0,0.0,72,0.00,,,0.00,WUHU21623XXSP,2013-01-10 04:23:00,
2013-01-09 23:28:00,31.3,23.6,30.49,West,270,0.0,0.0,73,0.00,,,0.00,WUHU21623XXSP,2013-01-10 04:28:00,
2013-01-09 23:33:00,30.9,23.3,30.49,West,270,0.0,0.0,73,0.00,,,0.00,WUHU21623XXSP,2013-01-10 04:33:00,
2013-01-09 23:38:00,30.7,23.1,30.49,West,270,0.0,0.0,73,0.00,,,0.00,WUHU21623XXSP,2013-01-10 04:38:00,
2013-01-09 23:43:00,30.4,22.7,30.49,West,270,0.0,0.0,73,0.00,,,0.00,WUHU21623XXSP,2013-01-10 04:43:00,
2013-01-09 23:48:00,30.2,22.5,30.50,West,270,0.0,0.0,73,0.00,,,0.00,WUHU21623XXSP,2013-01-10 04:48:00,
2013-01-09 23:53:00,30.0,22.4,30.51,West,270,0.0,0.0,73,0.00,,,0.00,WUHU21623XXSP,2013-01-10 04:53:00,
2013-01-09 23:58:00,30.0,22.7,30.51,West,270,0.0,0.0,74,0.00,,,0.00,WUHU21623XXSP,2013-01-10 04:58:00,